East Cambridge, Massachusetts
Current Conditions -  °F | °C
As of 4:54 PM on Saturday 20 Dec 2014 (Local Time) from KBOS Reporting Station
Light Snow Light Snow  
Wind Chill: 25°   Ceiling: 1700
Heat Index: 33°   Visibility: 8mi
Dew Point: 25°   Wind: 10mph
Humidity: 72%   Direction: 360°N
Pressure: 30.28"   Gusts: NA
Location:  42.3703°N, 71.0825°W
Report Text: KBOS 202154Z 36009KT 8SM -SN OVC017 01/M04 A3028 RMK AO2 SNB51 SLP253 P0000 T00061039
Loading
Personal Weather Stations






























Interactive Weather Map New forecast layout! Learn more

10-Day Weather Forecast

Advertisements
Track Severe Weather on mobile